createdAt,value
2023-03-17T00:00:16.772Z,75.22
2023-03-17T00:05:41.486Z,75.65
2023-03-17T00:10:46.384Z,75.81
2023-03-17T00:16:03.825Z,75.58
2023-03-17T00:21:13.451Z,75.55
2023-03-17T00:26:19.958Z,75.34
2023-03-17T00:31:26.278Z,75.17
2023-03-17T00:36:33.975Z,74.94
2023-03-17T00:41:40.284Z,75.14
2023-03-17T00:46:45.065Z,75.03
2023-03-17T00:51:50.409Z,75.15
2023-03-17T00:56:54.275Z,75.05
2023-03-17T01:01:58.374Z,75.00
2023-03-17T01:07:02.768Z,75.27
2023-03-17T01:12:12.934Z,75.43
2023-03-17T01:17:20.676Z,74.97
2023-03-17T01:22:24.823Z,74.82
2023-03-17T01:27:29.515Z,74.74
2023-03-17T01:32:34.305Z,74.63
2023-03-17T01:37:39.904Z,74.41
2023-03-17T01:42:54.664Z,73.92
2023-03-17T01:48:00.358Z,73.83
2023-03-17T01:53:05.630Z,73.43
2023-03-17T01:58:10.259Z,73.47
2023-03-17T02:03:14.678Z,73.60
2023-03-17T02:08:18.886Z,73.59
2023-03-17T02:13:24.067Z,73.59
2023-03-17T02:18:30.077Z,74.17
2023-03-17T02:23:34.922Z,74.41
2023-03-17T02:28:39.918Z,74.75
2023-03-17T02:33:44.238Z,74.80
2023-03-17T02:38:49.204Z,75.10
2023-03-17T02:43:54.180Z,74.99
2023-03-17T02:48:59.127Z,75.10
2023-03-17T02:54:03.810Z,74.98
2023-03-17T02:59:08.872Z,74.79
2023-03-17T03:04:13.825Z,74.61
2023-03-17T03:09:20.052Z,74.69
2023-03-17T03:14:25.230Z,74.97
2023-03-17T03:19:30.293Z,74.95
2023-03-17T03:24:34.886Z,75.64
2023-03-17T03:29:38.867Z,76.12
2023-03-17T03:34:42.981Z,76.11
2023-03-17T03:39:48.133Z,76.31
2023-03-17T03:44:54.115Z,76.04
2023-03-17T03:49:59.207Z,76.32
2023-03-17T03:55:03.310Z,76.46
2023-03-17T04:00:09.941Z,76.28
2023-03-17T04:05:21.401Z,76.16
2023-03-17T04:10:26.765Z,75.84
2023-03-17T04:15:31.092Z,75.62
2023-03-17T04:20:35.812Z,75.42
2023-03-17T04:25:40.440Z,75.54
2023-03-17T04:30:46.644Z,75.53
2023-03-17T04:35:51.740Z,75.51
2023-03-17T04:40:57.144Z,75.52
2023-03-17T04:46:01.527Z,75.51
2023-03-17T04:51:05.626Z,75.23
2023-03-17T04:56:10.905Z,75.29
2023-03-17T05:01:14.803Z,75.40
2023-03-17T05:06:20.166Z,75.35
2023-03-17T05:11:25.491Z,75.43
2023-03-17T05:16:29.879Z,75.38
2023-03-17T05:21:34.698Z,75.51
2023-03-17T05:26:39.153Z,75.53
2023-03-17T05:31:44.150Z,75.25
2023-03-17T05:36:48.320Z,75.32
2023-03-17T05:41:53.190Z,75.17
2023-03-17T05:47:00.961Z,74.93
2023-03-17T05:52:05.797Z,74.71
2023-03-17T05:57:09.727Z,74.49
2023-03-17T06:02:14.826Z,74.25
2023-03-17T06:07:18.724Z,73.97
2023-03-17T06:12:23.356Z,73.80
2023-03-17T06:17:27.742Z,73.79
2023-03-17T06:22:33.224Z,73.64
2023-03-17T06:27:38.284Z,72.91
2023-03-17T06:32:42.083Z,72.91
2023-03-17T06:37:49.653Z,72.14
2023-03-17T06:42:55.419Z,71.26
2023-03-17T06:48:00.574Z,70.62
2023-03-17T06:53:07.695Z,70.41
2023-03-17T06:58:13.594Z,69.76
2023-03-17T07:03:18.984Z,69.21
2023-03-17T07:08:23.282Z,68.78
2023-03-17T07:13:27.726Z,69.53
2023-03-17T07:18:34.781Z,68.30
2023-03-17T07:23:39.944Z,67.42
2023-03-17T07:28:43.796Z,67.75
2023-03-17T07:33:48.509Z,67.87
2023-03-17T07:38:52.917Z,66.53
2023-03-17T07:43:58.210Z,65.36
2023-03-17T07:49:02.824Z,66.09
2023-03-17T07:54:07.868Z,65.25
2023-03-17T07:59:12.676Z,64.52
2023-03-17T08:04:17.130Z,64.11
2023-03-17T08:09:24.700Z,62.81
2023-03-17T08:14:29.062Z,62.16
2023-03-17T08:19:33.511Z,61.02
2023-03-17T08:24:40.790Z,60.14
2023-03-17T08:29:49.245Z,59.40
2023-03-17T08:34:54.822Z,59.14
2023-03-17T08:39:59.318Z,58.88
2023-03-17T08:45:04.004Z,59.31
2023-03-17T08:50:11.751Z,57.61
2023-03-17T08:55:16.664Z,56.01
2023-03-17T09:00:21.782Z,56.08
2023-03-17T09:05:26.941Z,55.72
2023-03-17T09:10:31.892Z,54.82
2023-03-17T09:15:36.117Z,53.17
2023-03-17T09:20:40.720Z,52.07
2023-03-17T09:25:45.198Z,51.79
2023-03-17T09:30:48.934Z,51.06
2023-03-17T09:35:55.964Z,52.42
2023-03-17T09:41:31.828Z,50.58
2023-03-17T09:46:59.298Z,48.74
2023-03-17T09:52:04.458Z,48.85
2023-03-17T09:57:16.811Z,47.80
2023-03-17T10:02:28.051Z,47.98
2023-03-17T10:07:59.741Z,47.42
2023-03-17T10:13:25.386Z,46.74
2023-03-17T10:18:53.495Z,46.30
2023-03-17T10:23:58.321Z,45.93
2023-03-17T10:29:06.293Z,44.99
2023-03-17T10:34:22.093Z,44.40
2023-03-17T10:39:29.319Z,44.26
2023-03-17T10:44:57.341Z,43.22
2023-03-17T10:50:32.643Z,41.14
2023-03-17T10:55:44.976Z,41.28
2023-03-17T11:01:22.031Z,40.84
2023-03-17T11:06:41.501Z,41.07
2023-03-17T11:11:50.438Z,40.19
2023-03-17T11:16:56.011Z,39.09
2023-03-17T11:22:14.836Z,39.71
2023-03-17T11:27:34.320Z,39.43
2023-03-17T11:32:56.841Z,39.51
2023-03-17T11:38:24.718Z,39.81
2023-03-17T11:43:50.181Z,38.71
2023-03-17T11:49:24.096Z,38.85
2023-03-17T11:54:54.269Z,38.30
2023-03-17T12:00:17.384Z,38.89
2023-03-17T12:05:25.402Z,39.42
2023-03-17T12:10:45.865Z,38.05
2023-03-17T12:16:38.753Z,38.82
2023-03-17T12:22:00.289Z,37.39
2023-03-17T12:27:06.618Z,37.97
2023-03-17T12:32:13.311Z,36.23
2023-03-17T12:37:19.506Z,36.93
2023-03-17T12:42:39.119Z,37.41
2023-03-17T12:48:20.369Z,36.74
2023-03-17T12:53:49.161Z,35.86
2023-03-17T12:58:55.718Z,36.10
2023-03-17T13:04:22.741Z,35.23
2023-03-17T13:09:39.935Z,35.93
2023-03-17T13:14:47.948Z,36.60
2023-03-17T13:20:40.574Z,36.15
2023-03-17T13:25:53.952Z,35.99
2023-03-17T13:31:16.805Z,35.31
2023-03-17T13:36:32.306Z,34.44
2023-03-17T13:42:15.738Z,35.62
2023-03-17T13:47:24.602Z,36.07
2023-03-17T13:52:33.440Z,36.85
2023-03-17T13:57:38.799Z,35.08
2023-03-17T14:02:43.974Z,35.48
2023-03-17T14:08:01.376Z,35.83
2023-03-17T14:13:25.280Z,36.35
2023-03-17T14:18:34.106Z,35.81
2023-03-17T14:23:37.807Z,35.61
2023-03-17T14:28:42.440Z,36.12
2023-03-17T14:33:46.600Z,36.79
2023-03-17T14:38:52.951Z,36.57
2023-03-17T14:44:01.847Z,36.69
2023-03-17T14:49:21.603Z,35.90
2023-03-17T14:54:30.250Z,36.33
2023-03-17T14:59:37.565Z,36.03
2023-03-17T15:04:53.894Z,34.99
2023-03-17T15:10:02.810Z,35.29
2023-03-17T15:15:23.024Z,35.83
2023-03-17T15:20:29.439Z,35.46
2023-03-17T15:25:37.978Z,35.82
2023-03-17T15:30:48.859Z,36.28
2023-03-17T15:35:53.336Z,36.91
2023-03-17T15:41:04.894Z,37.23
2023-03-17T15:46:22.636Z,37.62
2023-03-17T15:51:27.134Z,37.44
2023-03-17T15:56:31.512Z,37.97
2023-03-17T16:01:37.184Z,38.92
2023-03-17T16:06:42.168Z,39.33
2023-03-17T16:11:46.105Z,39.91
2023-03-17T16:16:49.746Z,40.04
2023-03-17T16:21:55.639Z,40.19
2023-03-17T16:26:59.383Z,40.45
2023-03-17T16:32:03.227Z,40.57
2023-03-17T16:37:15.941Z,41.08
2023-03-17T16:42:25.122Z,41.48
2023-03-17T16:47:30.712Z,41.93
2023-03-17T16:52:35.184Z,42.24
2023-03-17T16:57:39.812Z,42.68
2023-03-17T17:02:49.761Z,42.92
2023-03-17T17:07:57.174Z,43.17
2023-03-17T17:13:02.648Z,43.33
2023-03-17T17:18:19.330Z,43.58
2023-03-17T17:23:27.242Z,43.81
2023-03-17T17:28:32.646Z,44.06
2023-03-17T17:33:37.810Z,44.17
2023-03-17T17:38:42.813Z,44.43
2023-03-17T17:43:51.851Z,44.71
2023-03-17T17:49:03.007Z,44.83
2023-03-17T17:54:08.983Z,45.26
2023-03-17T17:59:15.318Z,45.59
2023-03-17T18:04:21.430Z,45.85
2023-03-17T18:09:31.911Z,46.54
2023-03-17T18:14:37.515Z,46.94
2023-03-17T18:19:45.065Z,46.68
2023-03-17T18:24:50.912Z,46.79
2023-03-17T18:30:05.781Z,47.07
2023-03-17T18:35:14.334Z,47.42
2023-03-17T18:40:22.871Z,47.70
2023-03-17T18:45:30.322Z,48.42
2023-03-17T18:50:37.982Z,48.45
2023-03-17T18:55:52.161Z,48.77
2023-03-17T19:01:03.329Z,49.14
2023-03-17T19:06:16.797Z,49.13
2023-03-17T19:11:27.144Z,49.30
2023-03-17T19:16:34.202Z,49.63
2023-03-17T19:21:48.743Z,49.85
2023-03-17T19:26:55.840Z,49.92
2023-03-17T19:32:01.533Z,50.25
2023-03-17T19:37:09.121Z,50.68
2023-03-17T19:42:15.307Z,51.54
2023-03-17T19:47:24.621Z,52.24
2023-03-17T19:52:31.487Z,52.72
2023-03-17T19:57:38.474Z,51.81
2023-03-17T20:02:44.778Z,52.33
2023-03-17T20:07:53.372Z,52.10
2023-03-17T20:12:59.565Z,52.00
2023-03-17T20:18:05.658Z,52.56
2023-03-17T20:23:13.872Z,52.68
2023-03-17T20:28:19.886Z,52.50
2023-03-17T20:33:27.343Z,52.77
2023-03-17T20:38:37.286Z,52.97
2023-03-17T20:43:46.486Z,53.14
2023-03-17T20:48:59.513Z,54.56
2023-03-17T20:54:05.945Z,55.48
2023-03-17T20:59:13.770Z,55.47
2023-03-17T21:04:21.415Z,55.89
2023-03-17T21:09:27.161Z,55.12
2023-03-17T21:14:33.916Z,54.86
2023-03-17T21:19:51.446Z,55.02
2023-03-17T21:25:05.875Z,55.07
2023-03-17T21:30:33.222Z,56.10
2023-03-17T21:35:52.216Z,55.83
2023-03-17T21:47:08.425Z,56.44
2023-03-17T21:52:35.998Z,56.16
2023-03-17T21:57:56.467Z,56.82
2023-03-17T22:03:08.082Z,57.33
2023-03-17T22:08:28.372Z,57.13
2023-03-17T22:13:43.417Z,56.80
2023-03-17T22:18:56.861Z,57.03
2023-03-17T22:24:18.523Z,57.68
2023-03-17T22:29:35.829Z,58.26
2023-03-17T22:34:47.967Z,58.97
2023-03-17T22:39:53.749Z,59.65
2023-03-17T22:45:00.480Z,59.40
2023-03-17T22:50:11.141Z,59.27
2023-03-17T22:55:19.512Z,59.13
2023-03-17T23:00:26.793Z,58.99
2023-03-17T23:05:31.203Z,58.95
2023-03-17T23:10:34.936Z,59.04
2023-03-17T23:15:39.313Z,59.21
2023-03-17T23:20:43.781Z,59.13
2023-03-17T23:25:48.069Z,58.96
2023-03-17T23:30:53.239Z,58.98
2023-03-17T23:35:57.745Z,58.96
2023-03-17T23:41:02.544Z,59.07
2023-03-17T23:46:06.361Z,59.10
2023-03-17T23:51:12.769Z,59.35
2023-03-17T23:56:16.654Z,59.71
